sensor_id;sensor_type;location;lat;lon;timestamp;P1;durP1;ratioP1;P2;durP2;ratioP2
21337;SDS011;72379;50.880;4.350;2024-03-29T00:02:15;5.20;;;2.10;;
21337;SDS011;72379;50.880;4.350;2024-03-29T00:04:43;6.00;;;1.33;;
21337;SDS011;72379;50.880;4.350;2024-03-29T00:07:09;4.87;;;1.43;;
21337;SDS011;72379;50.880;4.350;2024-03-29T00:12:05;4.60;;;1.20;;
21337;SDS011;72379;50.880;4.350;2024-03-29T00:14:32;3.07;;;1.10;;
21337;SDS011;72379;50.880;4.350;2024-03-29T00:16:57;2.83;;;1.07;;
21337;SDS011;72379;50.880;4.350;2024-03-29T00:19:23;3.53;;;1.13;;
21337;SDS011;72379;50.880;4.350;2024-03-29T00:21:49;5.43;;;1.03;;
21337;SDS011;72379;50.880;4.350;2024-03-29T00:24:22;6.57;;;1.10;;
21337;SDS011;72379;50.880;4.350;2024-03-29T00:26:47;4.97;;;1.00;;
21337;SDS011;72379;50.880;4.350;2024-03-29T00:29:13;4.53;;;1.27;;
21337;SDS011;72379;50.880;4.350;2024-03-29T00:31:40;5.00;;;1.30;;
21337;SDS011;72379;50.880;4.350;2024-03-29T00:34:06;9.03;;;1.40;;
21337;SDS011;72379;50.880;4.350;2024-03-29T00:36:32;5.23;;;1.40;;
21337;SDS011;72379;50.880;4.350;2024-03-29T00:38:57;1.73;;;0.90;;
21337;SDS011;72379;50.880;4.350;2024-03-29T00:41:23;3.93;;;1.27;;
21337;SDS011;72379;50.880;4.350;2024-03-29T00:43:49;4.57;;;1.30;;
21337;SDS011;72379;50.880;4.350;2024-03-29T00:46:17;2.57;;;0.87;;
21337;SDS011;72379;50.880;4.350;2024-03-29T00:48:43;2.80;;;1.10;;
21337;SDS011;72379;50.880;4.350;2024-03-29T00:51:12;1.97;;;0.90;;
21337;SDS011;72379;50.880;4.350;2024-03-29T00:53:38;4.07;;;0.90;;
21337;SDS011;72379;50.880;4.350;2024-03-29T00:56:04;4.40;;;1.37;;
21337;SDS011;72379;50.880;4.350;2024-03-29T00:58:30;7.40;;;1.10;;
21337;SDS011;72379;50.880;4.350;2024-03-29T01:00:56;4.90;;;1.20;;
21337;SDS011;72379;50.880;4.350;2024-03-29T01:03:22;4.60;;;1.10;;
21337;SDS011;72379;50.880;4.350;2024-03-29T01:05:49;6.37;;;1.20;;
21337;SDS011;72379;50.880;4.350;2024-03-29T01:08:15;7.17;;;1.13;;
21337;SDS011;72379;50.880;4.350;2024-03-29T01:10:41;6.00;;;1.23;;
21337;SDS011;72379;50.880;4.350;2024-03-29T01:13:07;3.20;;;0.83;;
21337;SDS011;72379;50.880;4.350;2024-03-29T01:15:33;3.97;;;0.90;;
21337;SDS011;72379;50.880;4.350;2024-03-29T01:17:59;3.60;;;1.10;;
21337;SDS011;72379;50.880;4.350;2024-03-29T01:20:24;2.20;;;0.93;;
21337;SDS011;72379;50.880;4.350;2024-03-29T01:22:50;2.33;;;0.90;;
21337;SDS011;72379;50.880;4.350;2024-03-29T01:25:16;4.63;;;0.80;;
21337;SDS011;72379;50.880;4.350;2024-03-29T01:27:43;5.83;;;1.00;;
21337;SDS011;72379;50.880;4.350;2024-03-29T01:30:10;3.70;;;1.07;;
21337;SDS011;72379;50.880;4.350;2024-03-29T01:32:36;3.70;;;0.90;;
21337;SDS011;72379;50.880;4.350;2024-03-29T01:35:03;6.00;;;0.80;;
21337;SDS011;72379;50.880;4.350;2024-03-29T01:37:29;3.37;;;0.93;;
21337;SDS011;72379;50.880;4.350;2024-03-29T01:40:02;5.63;;;0.90;;
21337;SDS011;72379;50.880;4.350;2024-03-29T01:42:28;7.17;;;1.00;;
21337;SDS011;72379;50.880;4.350;2024-03-29T01:44:55;7.30;;;0.70;;
21337;SDS011;72379;50.880;4.350;2024-03-29T01:47:21;2.30;;;1.00;;
21337;SDS011;72379;50.880;4.350;2024-03-29T01:49:54;6.77;;;1.27;;
21337;SDS011;72379;50.880;4.350;2024-03-29T01:52:19;5.90;;;0.80;;
21337;SDS011;72379;50.880;4.350;2024-03-29T01:54:48;3.37;;;0.77;;
21337;SDS011;72379;50.880;4.350;2024-03-29T01:57:15;1.90;;;0.90;;
21337;SDS011;72379;50.880;4.350;2024-03-29T01:59:42;2.37;;;0.80;;
21337;SDS011;72379;50.880;4.350;2024-03-29T02:02:11;2.10;;;0.70;;
21337;SDS011;72379;50.880;4.350;2024-03-29T02:04:37;1.90;;;0.77;;
21337;SDS011;72379;50.880;4.350;2024-03-29T02:07:05;1.67;;;0.70;;
21337;SDS011;72379;50.880;4.350;2024-03-29T02:09:31;1.43;;;0.60;;
21337;SDS011;72379;50.880;4.350;2024-03-29T02:11:57;0.40;;;0.40;;
21337;SDS011;72379;50.880;4.350;2024-03-29T02:14:23;6.80;;;0.40;;
21337;SDS011;72379;50.880;4.350;2024-03-29T02:16:50;0.97;;;0.40;;
21337;SDS011;72379;50.880;4.350;2024-03-29T02:19:15;1.70;;;0.70;;
21337;SDS011;72379;50.880;4.350;2024-03-29T02:21:42;1.13;;;0.50;;
21337;SDS011;72379;50.880;4.350;2024-03-29T02:24:12;0.40;;;0.40;;
21337;SDS011;72379;50.880;4.350;2024-03-29T02:26:41;0.87;;;0.40;;
21337;SDS011;72379;50.880;4.350;2024-03-29T02:29:08;0.93;;;0.70;;
21337;SDS011;72379;50.880;4.350;2024-03-29T02:31:38;0.50;;;0.50;;
21337;SDS011;72379;50.880;4.350;2024-03-29T02:34:04;0.63;;;0.60;;
21337;SDS011;72379;50.880;4.350;2024-03-29T02:36:30;1.90;;;0.50;;
21337;SDS011;72379;50.880;4.350;2024-03-29T02:38:57;1.03;;;0.60;;
21337;SDS011;72379;50.880;4.350;2024-03-29T02:41:23;2.93;;;0.90;;
21337;SDS011;72379;50.880;4.350;2024-03-29T02:43:51;3.57;;;0.73;;
21337;SDS011;72379;50.880;4.350;2024-03-29T02:46:17;0.80;;;0.57;;
21337;SDS011;72379;50.880;4.350;2024-03-29T02:48:42;3.37;;;1.13;;
21337;SDS011;72379;50.880;4.350;2024-03-29T02:51:10;2.57;;;0.80;;
21337;SDS011;72379;50.880;4.350;2024-03-29T02:53:36;3.57;;;0.93;;
21337;SDS011;72379;50.880;4.350;2024-03-29T02:56:03;3.13;;;1.00;;
21337;SDS011;72379;50.880;4.350;2024-03-29T02:58:29;5.70;;;1.23;;
21337;SDS011;72379;50.880;4.350;2024-03-29T03:00:57;6.37;;;1.60;;
21337;SDS011;72379;50.880;4.350;2024-03-29T03:03:30;3.77;;;1.20;;
21337;SDS011;72379;50.880;4.350;2024-03-29T03:05:56;3.90;;;1.40;;
21337;SDS011;72379;50.880;4.350;2024-03-29T03:08:22;4.57;;;1.23;;
21337;SDS011;72379;50.880;4.350;2024-03-29T03:11:06;5.13;;;1.33;;
21337;SDS011;72379;50.880;4.350;2024-03-29T03:13:32;3.23;;;1.30;;
21337;SDS011;72379;50.880;4.350;2024-03-29T03:15:59;4.20;;;1.20;;
21337;SDS011;72379;50.880;4.350;2024-03-29T03:18:25;2.40;;;1.20;;
21337;SDS011;72379;50.880;4.350;2024-03-29T03:20:54;2.87;;;0.90;;
21337;SDS011;72379;50.880;4.350;2024-03-29T03:23:22;4.00;;;1.33;;
21337;SDS011;72379;50.880;4.350;2024-03-29T03:28:21;3.80;;;0.93;;
21337;SDS011;72379;50.880;4.350;2024-03-29T03:30:48;2.90;;;0.90;;
21337;SDS011;72379;50.880;4.350;2024-03-29T03:33:14;2.27;;;0.80;;
21337;SDS011;72379;50.880;4.350;2024-03-29T03:35:41;2.83;;;0.90;;
21337;SDS011;72379;50.880;4.350;2024-03-29T03:38:07;2.93;;;1.00;;
21337;SDS011;72379;50.880;4.350;2024-03-29T03:40:34;7.10;;;0.90;;
21337;SDS011;72379;50.880;4.350;2024-03-29T03:43:04;5.37;;;1.23;;
21337;SDS011;72379;50.880;4.350;2024-03-29T03:45:40;2.43;;;0.80;;
21337;SDS011;72379;50.880;4.350;2024-03-29T03:48:09;2.50;;;0.90;;
21337;SDS011;72379;50.880;4.350;2024-03-29T03:50:37;4.53;;;1.07;;
21337;SDS011;72379;50.880;4.350;2024-03-29T03:53:05;1.33;;;0.80;;
21337;SDS011;72379;50.880;4.350;2024-03-29T03:55:30;1.83;;;0.80;;
21337;SDS011;72379;50.880;4.350;2024-03-29T03:58:00;2.07;;;1.10;;
21337;SDS011;72379;50.880;4.350;2024-03-29T04:00:27;3.43;;;1.10;;
21337;SDS011;72379;50.880;4.350;2024-03-29T04:02:52;4.03;;;0.80;;
21337;SDS011;72379;50.880;4.350;2024-03-29T04:05:18;4.30;;;1.03;;
21337;SDS011;72379;50.880;4.350;2024-03-29T04:07:45;4.33;;;0.73;;
21337;SDS011;72379;50.880;4.350;2024-03-29T04:10:11;1.87;;;0.90;;
21337;SDS011;72379;50.880;4.350;2024-03-29T04:12:37;3.00;;;0.63;;
21337;SDS011;72379;50.880;4.350;2024-03-29T04:15:04;3.80;;;1.00;;
21337;SDS011;72379;50.880;4.350;2024-03-29T04:17:30;1.57;;;0.77;;
21337;SDS011;72379;50.880;4.350;2024-03-29T04:19:57;1.43;;;0.60;;
21337;SDS011;72379;50.880;4.350;2024-03-29T04:22:23;4.43;;;0.83;;
21337;SDS011;72379;50.880;4.350;2024-03-29T04:24:50;3.03;;;0.80;;
21337;SDS011;72379;50.880;4.350;2024-03-29T04:27:18;2.37;;;1.20;;
21337;SDS011;72379;50.880;4.350;2024-03-29T04:29:44;2.10;;;0.70;;
21337;SDS011;72379;50.880;4.350;2024-03-29T04:32:10;2.33;;;0.70;;
21337;SDS011;72379;50.880;4.350;2024-03-29T04:34:36;2.87;;;1.20;;
21337;SDS011;72379;50.880;4.350;2024-03-29T04:37:02;2.93;;;0.80;;
21337;SDS011;72379;50.880;4.350;2024-03-29T04:39:29;4.40;;;0.90;;
21337;SDS011;72379;50.880;4.350;2024-03-29T04:41:55;1.90;;;0.80;;
21337;SDS011;72379;50.880;4.350;2024-03-29T04:44:24;2.40;;;0.80;;
21337;SDS011;72379;50.880;4.350;2024-03-29T04:46:51;4.57;;;0.80;;
21337;SDS011;72379;50.880;4.350;2024-03-29T04:49:22;4.27;;;0.70;;
21337;SDS011;72379;50.880;4.350;2024-03-29T04:52:00;1.23;;;0.73;;
21337;SDS011;72379;50.880;4.350;2024-03-29T04:54:26;1.30;;;0.67;;
21337;SDS011;72379;50.880;4.350;2024-03-29T04:56:53;2.23;;;0.50;;
21337;SDS011;72379;50.880;4.350;2024-03-29T04:59:18;1.20;;;0.60;;
21337;SDS011;72379;50.880;4.350;2024-03-29T05:01:47;2.63;;;0.90;;
21337;SDS011;72379;50.880;4.350;2024-03-29T05:04:16;0.70;;;0.70;;
21337;SDS011;72379;50.880;4.350;2024-03-29T05:06:45;1.57;;;0.70;;
21337;SDS011;72379;50.880;4.350;2024-03-29T05:09:10;1.90;;;0.60;;
21337;SDS011;72379;50.880;4.350;2024-03-29T05:11:39;2.70;;;0.73;;
21337;SDS011;72379;50.880;4.350;2024-03-29T05:14:05;0.50;;;0.50;;
21337;SDS011;72379;50.880;4.350;2024-03-29T05:16:31;2.63;;;0.80;;
21337;SDS011;72379;50.880;4.350;2024-03-29T05:18:57;1.10;;;0.70;;
21337;SDS011;72379;50.880;4.350;2024-03-29T05:21:23;1.80;;;0.60;;
21337;SDS011;72379;50.880;4.350;2024-03-29T05:23:49;2.50;;;0.70;;
21337;SDS011;72379;50.880;4.350;2024-03-29T05:26:16;0.80;;;0.50;;
21337;SDS011;72379;50.880;4.350;2024-03-29T05:28:41;2.83;;;0.80;;
21337;SDS011;72379;50.880;4.350;2024-03-29T05:31:11;1.67;;;0.70;;
21337;SDS011;72379;50.880;4.350;2024-03-29T05:33:41;1.77;;;0.80;;
21337;SDS011;72379;50.880;4.350;2024-03-29T05:36:07;3.13;;;1.00;;
21337;SDS011;72379;50.880;4.350;2024-03-29T05:38:35;0.70;;;0.67;;
21337;SDS011;72379;50.880;4.350;2024-03-29T05:41:02;4.20;;;0.80;;
21337;SDS011;72379;50.880;4.350;2024-03-29T05:43:28;1.10;;;0.70;;
21337;SDS011;72379;50.880;4.350;2024-03-29T05:45:54;4.10;;;0.70;;
21337;SDS011;72379;50.880;4.350;2024-03-29T05:48:20;2.23;;;0.70;;
21337;SDS011;72379;50.880;4.350;2024-03-29T05:50:46;4.20;;;0.93;;
21337;SDS011;72379;50.880;4.350;2024-03-29T05:53:12;2.80;;;0.93;;
21337;SDS011;72379;50.880;4.350;2024-03-29T05:55:38;2.83;;;0.73;;
21337;SDS011;72379;50.880;4.350;2024-03-29T05:58:04;1.23;;;0.73;;
21337;SDS011;72379;50.880;4.350;2024-03-29T06:00:31;1.80;;;0.97;;
21337;SDS011;72379;50.880;4.350;2024-03-29T06:02:59;0.97;;;0.80;;
21337;SDS011;72379;50.880;4.350;2024-03-29T06:05:28;3.73;;;0.93;;
21337;SDS011;72379;50.880;4.350;2024-03-29T06:07:54;1.67;;;0.60;;
21337;SDS011;72379;50.880;4.350;2024-03-29T06:10:20;0.87;;;0.70;;
21337;SDS011;72379;50.880;4.350;2024-03-29T06:12:46;2.20;;;1.00;;
21337;SDS011;72379;50.880;4.350;2024-03-29T06:15:12;2.07;;;1.00;;
21337;SDS011;72379;50.880;4.350;2024-03-29T06:17:57;2.17;;;1.00;;
21337;SDS011;72379;50.880;4.350;2024-03-29T06:20:23;0.30;;;0.30;;
21337;SDS011;72379;50.880;4.350;2024-03-29T06:22:49;1.30;;;0.90;;
21337;SDS011;72379;50.880;4.350;2024-03-29T06:25:15;4.20;;;0.87;;
21337;SDS011;72379;50.880;4.350;2024-03-29T06:27:41;4.17;;;0.90;;
21337;SDS011;72379;50.880;4.350;2024-03-29T06:30:12;2.07;;;0.90;;
21337;SDS011;72379;50.880;4.350;2024-03-29T06:32:42;3.67;;;1.30;;
21337;SDS011;72379;50.880;4.350;2024-03-29T06:35:08;2.67;;;1.00;;
21337;SDS011;72379;50.880;4.350;2024-03-29T06:37:34;3.23;;;1.10;;
21337;SDS011;72379;50.880;4.350;2024-03-29T06:40:00;2.87;;;1.10;;
21337;SDS011;72379;50.880;4.350;2024-03-29T06:42:27;10.13;;;1.47;;
21337;SDS011;72379;50.880;4.350;2024-03-29T06:44:53;4.87;;;1.37;;
21337;SDS011;72379;50.880;4.350;2024-03-29T06:47:19;4.80;;;1.23;;
21337;SDS011;72379;50.880;4.350;2024-03-29T06:49:45;4.33;;;1.57;;
21337;SDS011;72379;50.880;4.350;2024-03-29T06:52:12;3.33;;;1.20;;
21337;SDS011;72379;50.880;4.350;2024-03-29T06:54:38;3.93;;;1.50;;
21337;SDS011;72379;50.880;4.350;2024-03-29T06:57:04;5.07;;;1.67;;
21337;SDS011;72379;50.880;4.350;2024-03-29T06:59:30;5.50;;;1.47;;
21337;SDS011;72379;50.880;4.350;2024-03-29T07:01:56;7.50;;;1.97;;
21337;SDS011;72379;50.880;4.350;2024-03-29T07:04:23;4.40;;;1.70;;
21337;SDS011;72379;50.880;4.350;2024-03-29T07:06:49;4.33;;;1.87;;
21337;SDS011;72379;50.880;4.350;2024-03-29T07:09:21;2.53;;;1.60;;
21337;SDS011;72379;50.880;4.350;2024-03-29T07:11:49;1.47;;;1.03;;
21337;SDS011;72379;50.880;4.350;2024-03-29T07:14:16;6.80;;;1.93;;
21337;SDS011;72379;50.880;4.350;2024-03-29T07:16:43;3.83;;;2.30;;
21337;SDS011;72379;50.880;4.350;2024-03-29T07:19:10;4.60;;;2.13;;
21337;SDS011;72379;50.880;4.350;2024-03-29T07:21:41;5.93;;;2.17;;
21337;SDS011;72379;50.880;4.350;2024-03-29T07:24:13;7.27;;;2.07;;
21337;SDS011;72379;50.880;4.350;2024-03-29T07:26:39;3.70;;;1.50;;
21337;SDS011;72379;50.880;4.350;2024-03-29T07:29:05;4.00;;;1.93;;
21337;SDS011;72379;50.880;4.350;2024-03-29T07:31:32;4.37;;;1.80;;
21337;SDS011;72379;50.880;4.350;2024-03-29T07:33:58;7.43;;;1.93;;
21337;SDS011;72379;50.880;4.350;2024-03-29T07:36:25;6.87;;;1.97;;
21337;SDS011;72379;50.880;4.350;2024-03-29T07:38:56;4.03;;;2.30;;
21337;SDS011;72379;50.880;4.350;2024-03-29T07:41:25;8.73;;;2.67;;
21337;SDS011;72379;50.880;4.350;2024-03-29T07:43:54;3.10;;;1.80;;
21337;SDS011;72379;50.880;4.350;2024-03-29T07:46:33;4.93;;;2.10;;
21337;SDS011;72379;50.880;4.350;2024-03-29T07:49:02;5.10;;;2.20;;
21337;SDS011;72379;50.880;4.350;2024-03-29T07:51:28;6.40;;;2.20;;
21337;SDS011;72379;50.880;4.350;2024-03-29T07:53:54;5.50;;;2.27;;
21337;SDS011;72379;50.880;4.350;2024-03-29T07:56:20;5.90;;;2.33;;
21337;SDS011;72379;50.880;4.350;2024-03-29T07:58:51;3.10;;;1.80;;
21337;SDS011;72379;50.880;4.350;2024-03-29T08:01:20;6.67;;;2.40;;
21337;SDS011;72379;50.880;4.350;2024-03-29T08:03:52;6.77;;;2.37;;
21337;SDS011;72379;50.880;4.350;2024-03-29T08:06:21;7.47;;;2.57;;
21337;SDS011;72379;50.880;4.350;2024-03-29T08:08:48;7.63;;;2.63;;
21337;SDS011;72379;50.880;4.350;2024-03-29T08:11:15;6.57;;;2.83;;
21337;SDS011;72379;50.880;4.350;2024-03-29T08:13:41;7.87;;;2.57;;
21337;SDS011;72379;50.880;4.350;2024-03-29T08:16:07;10.30;;;2.77;;
21337;SDS011;72379;50.880;4.350;2024-03-29T08:18:34;6.07;;;2.27;;
21337;SDS011;72379;50.880;4.350;2024-03-29T08:21:00;8.80;;;2.67;;
21337;SDS011;72379;50.880;4.350;2024-03-29T08:23:26;8.40;;;3.33;;
21337;SDS011;72379;50.880;4.350;2024-03-29T08:25:51;5.70;;;2.73;;
21337;SDS011;72379;50.880;4.350;2024-03-29T08:28:21;7.73;;;2.63;;
21337;SDS011;72379;50.880;4.350;2024-03-29T08:30:56;7.10;;;3.00;;
21337;SDS011;72379;50.880;4.350;2024-03-29T08:33:23;6.87;;;2.93;;
21337;SDS011;72379;50.880;4.350;2024-03-29T08:35:49;11.10;;;3.13;;
21337;SDS011;72379;50.880;4.350;2024-03-29T08:38:15;8.23;;;2.73;;
21337;SDS011;72379;50.880;4.350;2024-03-29T08:40:41;6.37;;;3.27;;
21337;SDS011;72379;50.880;4.350;2024-03-29T08:43:08;8.50;;;3.40;;
21337;SDS011;72379;50.880;4.350;2024-03-29T08:45:35;6.97;;;3.37;;
21337;SDS011;72379;50.880;4.350;2024-03-29T08:48:06;9.63;;;3.00;;
21337;SDS011;72379;50.880;4.350;2024-03-29T08:50:33;7.57;;;3.17;;
21337;SDS011;72379;50.880;4.350;2024-03-29T08:53:00;7.00;;;2.63;;
21337;SDS011;72379;50.880;4.350;2024-03-29T08:55:27;4.87;;;2.17;;
21337;SDS011;72379;50.880;4.350;2024-03-29T08:57:53;4.80;;;3.00;;
21337;SDS011;72379;50.880;4.350;2024-03-29T09:00:18;3.97;;;2.50;;
21337;SDS011;72379;50.880;4.350;2024-03-29T09:02:45;8.07;;;3.33;;
21337;SDS011;72379;50.880;4.350;2024-03-29T09:05:11;10.07;;;2.70;;
21337;SDS011;72379;50.880;4.350;2024-03-29T09:07:37;6.03;;;3.20;;
21337;SDS011;72379;50.880;4.350;2024-03-29T09:10:03;6.80;;;2.20;;
21337;SDS011;72379;50.880;4.350;2024-03-29T09:12:29;10.97;;;3.27;;
21337;SDS011;72379;50.880;4.350;2024-03-29T09:14:55;3.60;;;2.10;;
21337;SDS011;72379;50.880;4.350;2024-03-29T09:17:21;6.10;;;2.40;;
21337;SDS011;72379;50.880;4.350;2024-03-29T09:19:50;5.80;;;2.33;;
21337;SDS011;72379;50.880;4.350;2024-03-29T09:22:17;5.77;;;2.53;;
21337;SDS011;72379;50.880;4.350;2024-03-29T09:24:43;8.57;;;2.63;;
21337;SDS011;72379;50.880;4.350;2024-03-29T09:27:09;5.90;;;2.47;;
21337;SDS011;72379;50.880;4.350;2024-03-29T09:29:34;6.43;;;3.03;;
21337;SDS011;72379;50.880;4.350;2024-03-29T09:32:00;7.87;;;2.80;;
21337;SDS011;72379;50.880;4.350;2024-03-29T09:34:29;5.40;;;2.37;;
21337;SDS011;72379;50.880;4.350;2024-03-29T09:36:56;7.17;;;2.30;;
21337;SDS011;72379;50.880;4.350;2024-03-29T09:39:22;5.27;;;2.43;;
21337;SDS011;72379;50.880;4.350;2024-03-29T09:41:48;11.50;;;2.60;;
21337;SDS011;72379;50.880;4.350;2024-03-29T09:44:15;3.67;;;1.83;;
21337;SDS011;72379;50.880;4.350;2024-03-29T09:46:42;3.40;;;1.87;;
21337;SDS011;72379;50.880;4.350;2024-03-29T09:49:08;3.40;;;1.60;;
21337;SDS011;72379;50.880;4.350;2024-03-29T09:51:37;3.67;;;2.07;;
21337;SDS011;72379;50.880;4.350;2024-03-29T09:54:03;4.13;;;2.07;;
21337;SDS011;72379;50.880;4.350;2024-03-29T09:56:33;5.63;;;1.97;;
21337;SDS011;72379;50.880;4.350;2024-03-29T09:58:59;4.83;;;2.10;;
21337;SDS011;72379;50.880;4.350;2024-03-29T10:01:26;3.87;;;2.00;;
21337;SDS011;72379;50.880;4.350;2024-03-29T10:03:53;4.57;;;2.20;;
21337;SDS011;72379;50.880;4.350;2024-03-29T10:06:19;3.80;;;2.13;;
21337;SDS011;72379;50.880;4.350;2024-03-29T10:08:48;4.57;;;1.80;;
21337;SDS011;72379;50.880;4.350;2024-03-29T10:11:16;5.10;;;2.40;;
21337;SDS011;72379;50.880;4.350;2024-03-29T10:13:43;5.30;;;1.80;;
21337;SDS011;72379;50.880;4.350;2024-03-29T10:16:12;4.37;;;2.23;;
21337;SDS011;72379;50.880;4.350;2024-03-29T10:18:42;2.97;;;2.00;;
21337;SDS011;72379;50.880;4.350;2024-03-29T10:21:09;4.60;;;2.13;;
21337;SDS011;72379;50.880;4.350;2024-03-29T10:23:35;4.60;;;1.80;;
21337;SDS011;72379;50.880;4.350;2024-03-29T10:26:01;3.43;;;1.90;;
21337;SDS011;72379;50.880;4.350;2024-03-29T10:28:31;4.80;;;1.60;;
21337;SDS011;72379;50.880;4.350;2024-03-29T10:31:01;4.30;;;1.73;;
21337;SDS011;72379;50.880;4.350;2024-03-29T10:33:31;4.20;;;1.70;;
21337;SDS011;72379;50.880;4.350;2024-03-29T10:36:00;4.50;;;1.90;;
21337;SDS011;72379;50.880;4.350;2024-03-29T10:38:30;3.40;;;1.93;;
21337;SDS011;72379;50.880;4.350;2024-03-29T10:40:56;8.37;;;1.70;;
21337;SDS011;72379;50.880;4.350;2024-03-29T10:43:22;2.07;;;1.00;;
21337;SDS011;72379;50.880;4.350;2024-03-29T10:45:49;2.47;;;1.43;;
21337;SDS011;72379;50.880;4.350;2024-03-29T10:48:23;1.87;;;1.10;;
21337;SDS011;72379;50.880;4.350;2024-03-29T10:50:58;1.87;;;0.97;;
21337;SDS011;72379;50.880;4.350;2024-03-29T10:53:24;1.70;;;1.00;;
21337;SDS011;72379;50.880;4.350;2024-03-29T10:55:56;3.43;;;1.20;;
21337;SDS011;72379;50.880;4.350;2024-03-29T10:58:25;2.70;;;0.90;;
21337;SDS011;72379;50.880;4.350;2024-03-29T11:00:56;1.27;;;0.70;;
21337;SDS011;72379;50.880;4.350;2024-03-29T11:03:44;2.33;;;1.20;;
21337;SDS011;72379;50.880;4.350;2024-03-29T11:06:14;2.30;;;0.87;;
21337;SDS011;72379;50.880;4.350;2024-03-29T11:08:41;3.17;;;1.17;;
21337;SDS011;72379;50.880;4.350;2024-03-29T11:11:12;1.70;;;0.93;;
21337;SDS011;72379;50.880;4.350;2024-03-29T11:16:39;1.50;;;0.90;;
21337;SDS011;72379;50.880;4.350;2024-03-29T11:19:10;1.60;;;1.10;;
21337;SDS011;72379;50.880;4.350;2024-03-29T11:21:38;1.00;;;0.90;;
21337;SDS011;72379;50.880;4.350;2024-03-29T11:24:07;1.07;;;0.70;;
21337;SDS011;72379;50.880;4.350;2024-03-29T11:26:34;3.80;;;1.00;;
21337;SDS011;72379;50.880;4.350;2024-03-29T11:29:00;1.30;;;0.80;;
21337;SDS011;72379;50.880;4.350;2024-03-29T11:31:27;2.67;;;1.00;;
21337;SDS011;72379;50.880;4.350;2024-03-29T11:33:57;1.80;;;1.03;;
21337;SDS011;72379;50.880;4.350;2024-03-29T11:36:24;1.37;;;1.10;;
21337;SDS011;72379;50.880;4.350;2024-03-29T11:38:54;1.73;;;1.10;;
21337;SDS011;72379;50.880;4.350;2024-03-29T11:41:23;1.00;;;0.80;;
21337;SDS011;72379;50.880;4.350;2024-03-29T11:43:53;2.87;;;1.20;;
21337;SDS011;72379;50.880;4.350;2024-03-29T11:46:20;1.03;;;0.90;;
21337;SDS011;72379;50.880;4.350;2024-03-29T11:48:46;3.50;;;1.50;;
21337;SDS011;72379;50.880;4.350;2024-03-29T11:51:17;1.03;;;0.80;;
21337;SDS011;72379;50.880;4.350;2024-03-29T11:53:45;2.67;;;1.30;;
21337;SDS011;72379;50.880;4.350;2024-03-29T11:56:12;1.80;;;1.10;;
21337;SDS011;72379;50.880;4.350;2024-03-29T11:58:38;2.53;;;1.10;;
21337;SDS011;72379;50.880;4.350;2024-03-29T12:01:04;1.37;;;0.80;;
21337;SDS011;72379;50.880;4.350;2024-03-29T12:03:37;1.90;;;1.00;;
21337;SDS011;72379;50.880;4.350;2024-03-29T12:06:03;1.13;;;0.90;;
21337;SDS011;72379;50.880;4.350;2024-03-29T12:08:33;2.30;;;0.90;;
21337;SDS011;72379;50.880;4.350;2024-03-29T12:11:07;1.77;;;1.00;;
21337;SDS011;72379;50.880;4.350;2024-03-29T12:13:33;0.93;;;0.90;;
21337;SDS011;72379;50.880;4.350;2024-03-29T12:15:59;2.57;;;1.10;;
21337;SDS011;72379;50.880;4.350;2024-03-29T12:18:26;4.97;;;1.27;;
21337;SDS011;72379;50.880;4.350;2024-03-29T12:20:53;3.07;;;0.97;;
21337;SDS011;72379;50.880;4.350;2024-03-29T12:23:20;5.27;;;1.03;;
21337;SDS011;72379;50.880;4.350;2024-03-29T12:25:47;2.67;;;1.37;;
21337;SDS011;72379;50.880;4.350;2024-03-29T12:28:14;1.37;;;1.10;;
21337;SDS011;72379;50.880;4.350;2024-03-29T12:30:41;2.27;;;1.20;;
21337;SDS011;72379;50.880;4.350;2024-03-29T12:33:11;4.03;;;1.07;;
21337;SDS011;72379;50.880;4.350;2024-03-29T12:35:44;2.73;;;1.00;;
21337;SDS011;72379;50.880;4.350;2024-03-29T12:38:14;2.80;;;1.30;;
21337;SDS011;72379;50.880;4.350;2024-03-29T12:40:45;2.00;;;0.80;;
21337;SDS011;72379;50.880;4.350;2024-03-29T12:43:19;3.33;;;1.00;;
21337;SDS011;72379;50.880;4.350;2024-03-29T12:45:46;1.37;;;0.90;;
21337;SDS011;72379;50.880;4.350;2024-03-29T12:48:15;1.50;;;0.83;;
21337;SDS011;72379;50.880;4.350;2024-03-29T12:50:43;3.57;;;1.13;;
21337;SDS011;72379;50.880;4.350;2024-03-29T12:53:10;1.20;;;1.10;;
21337;SDS011;72379;50.880;4.350;2024-03-29T12:55:39;1.87;;;0.87;;
21337;SDS011;72379;50.880;4.350;2024-03-29T12:58:09;1.97;;;1.00;;
21337;SDS011;72379;50.880;4.350;2024-03-29T13:00:36;0.70;;;0.70;;
21337;SDS011;72379;50.880;4.350;2024-03-29T13:03:05;3.07;;;1.17;;
21337;SDS011;72379;50.880;4.350;2024-03-29T13:05:31;1.33;;;0.80;;
21337;SDS011;72379;50.880;4.350;2024-03-29T13:08:02;1.20;;;0.80;;
21337;SDS011;72379;50.880;4.350;2024-03-29T13:10:29;2.30;;;1.10;;
21337;SDS011;72379;50.880;4.350;2024-03-29T13:12:58;1.63;;;1.00;;
21337;SDS011;72379;50.880;4.350;2024-03-29T13:15:24;1.83;;;0.90;;
21337;SDS011;72379;50.880;4.350;2024-03-29T13:17:51;6.33;;;1.07;;
21337;SDS011;72379;50.880;4.350;2024-03-29T13:20:21;1.80;;;1.10;;
21337;SDS011;72379;50.880;4.350;2024-03-29T13:22:49;1.40;;;0.80;;
21337;SDS011;72379;50.880;4.350;2024-03-29T13:25:18;1.60;;;1.00;;
21337;SDS011;72379;50.880;4.350;2024-03-29T13:27:45;3.93;;;1.10;;
21337;SDS011;72379;50.880;4.350;2024-03-29T13:30:12;1.80;;;1.30;;
21337;SDS011;72379;50.880;4.350;2024-03-29T13:32:41;2.23;;;1.17;;
21337;SDS011;72379;50.880;4.350;2024-03-29T13:35:09;1.33;;;1.20;;
21337;SDS011;72379;50.880;4.350;2024-03-29T13:37:40;1.33;;;1.03;;
21337;SDS011;72379;50.880;4.350;2024-03-29T13:40:11;3.30;;;1.20;;
21337;SDS011;72379;50.880;4.350;2024-03-29T13:42:37;1.63;;;1.00;;
21337;SDS011;72379;50.880;4.350;2024-03-29T13:45:05;2.77;;;0.90;;
21337;SDS011;72379;50.880;4.350;2024-03-29T13:47:32;2.30;;;1.10;;
21337;SDS011;72379;50.880;4.350;2024-03-29T13:49:58;2.70;;;1.00;;
21337;SDS011;72379;50.880;4.350;2024-03-29T13:52:24;1.67;;;0.80;;
21337;SDS011;72379;50.880;4.350;2024-03-29T13:54:52;1.73;;;0.77;;
21337;SDS011;72379;50.880;4.350;2024-03-29T13:57:18;4.70;;;0.80;;
21337;SDS011;72379;50.880;4.350;2024-03-29T13:59:45;4.93;;;1.23;;
21337;SDS011;72379;50.880;4.350;2024-03-29T14:02:11;1.50;;;0.60;;
21337;SDS011;72379;50.880;4.350;2024-03-29T14:04:42;1.90;;;0.90;;
21337;SDS011;72379;50.880;4.350;2024-03-29T14:07:11;1.83;;;1.20;;
21337;SDS011;72379;50.880;4.350;2024-03-29T14:09:38;2.10;;;1.00;;
21337;SDS011;72379;50.880;4.350;2024-03-29T14:12:08;1.60;;;0.80;;
21337;SDS011;72379;50.880;4.350;2024-03-29T14:14:34;4.13;;;1.00;;
21337;SDS011;72379;50.880;4.350;2024-03-29T14:17:00;1.43;;;1.10;;
21337;SDS011;72379;50.880;4.350;2024-03-29T14:19:32;1.93;;;0.83;;
21337;SDS011;72379;50.880;4.350;2024-03-29T14:22:02;2.57;;;0.90;;
21337;SDS011;72379;50.880;4.350;2024-03-29T14:24:28;1.53;;;0.80;;
21337;SDS011;72379;50.880;4.350;2024-03-29T14:26:58;2.50;;;1.10;;
21337;SDS011;72379;50.880;4.350;2024-03-29T14:29:24;1.27;;;1.07;;
21337;SDS011;72379;50.880;4.350;2024-03-29T14:31:50;4.10;;;1.20;;
21337;SDS011;72379;50.880;4.350;2024-03-29T14:34:18;1.77;;;1.13;;
21337;SDS011;72379;50.880;4.350;2024-03-29T14:36:45;2.10;;;1.13;;
21337;SDS011;72379;50.880;4.350;2024-03-29T14:39:11;3.60;;;1.20;;
21337;SDS011;72379;50.880;4.350;2024-03-29T14:41:41;2.90;;;1.00;;
21337;SDS011;72379;50.880;4.350;2024-03-29T14:44:09;4.47;;;1.20;;
21337;SDS011;72379;50.880;4.350;2024-03-29T14:46:35;2.63;;;0.90;;
21337;SDS011;72379;50.880;4.350;2024-03-29T14:49:01;4.77;;;1.13;;
21337;SDS011;72379;50.880;4.350;2024-03-29T14:51:31;2.07;;;1.00;;
21337;SDS011;72379;50.880;4.350;2024-03-29T14:54:00;1.17;;;0.90;;
21337;SDS011;72379;50.880;4.350;2024-03-29T14:56:28;2.20;;;1.07;;
21337;SDS011;72379;50.880;4.350;2024-03-29T14:58:57;2.97;;;1.00;;